createdAt,value
2019-04-28T00:01:46.744Z,9.70
2019-04-28T00:04:27.589Z,9.80
2019-04-28T00:07:08.517Z,9.70
2019-04-28T00:09:51.020Z,9.70
2019-04-28T00:12:32.522Z,9.80
2019-04-28T00:15:13.263Z,9.90
2019-04-28T00:17:54.357Z,9.80
2019-04-28T00:26:58.902Z,9.90
2019-04-28T00:29:45.381Z,10.00
2019-04-28T00:32:22.543Z,10.10
2019-04-28T00:35:03.113Z,10.10
2019-04-28T00:37:43.757Z,9.90
2019-04-28T00:40:24.549Z,9.80
2019-04-28T00:43:05.615Z,9.80
2019-04-28T00:45:45.966Z,9.70
2019-04-28T00:48:26.881Z,9.70
2019-04-28T00:51:08.330Z,9.80
2019-04-28T00:53:37.072Z,9.70
2019-04-28T00:56:05.885Z,9.60
2019-04-28T00:58:53.896Z,9.50
2019-04-28T01:02:01.235Z,9.30
2019-04-28T01:04:51.223Z,9.30
2019-04-28T01:07:38.962Z,9.40
2019-04-28T01:13:35.683Z,9.50
2019-04-28T01:16:42.767Z,9.30
2019-04-28T01:22:41.143Z,9.40
2019-04-28T01:25:29.850Z,9.40
2019-04-28T01:28:19.523Z,9.50
2019-04-28T01:31:29.461Z,9.40
2019-04-28T01:37:21.386Z,9.40
2019-04-28T01:40:02.139Z,9.50
2019-04-28T01:42:42.762Z,9.60
2019-04-28T01:45:23.795Z,9.70
2019-04-28T01:48:05.045Z,9.80
2019-04-28T01:50:46.095Z,9.70
2019-04-28T01:53:26.552Z,9.60
2019-04-28T01:56:07.247Z,9.60
2019-04-28T01:58:48.053Z,9.50
2019-04-28T02:01:30.160Z,9.30
2019-04-28T02:04:11.540Z,9.20
2019-04-28T02:06:52.255Z,9.20
2019-04-28T02:09:33.089Z,9.00
2019-04-28T02:12:13.951Z,8.80
2019-04-28T02:14:54.968Z,8.80
2019-04-28T02:17:35.510Z,8.70
2019-04-28T02:20:17.860Z,8.70
2019-04-28T02:23:02.541Z,8.70
2019-04-28T02:25:43.982Z,8.90
2019-04-28T02:28:24.611Z,8.90
2019-04-28T02:31:05.087Z,8.70
2019-04-28T02:33:46.134Z,8.60
2019-04-28T02:36:26.735Z,8.60
2019-04-28T02:39:07.193Z,8.70
2019-04-28T02:41:47.813Z,8.70
2019-04-28T02:44:31.822Z,8.70
2019-04-28T02:47:11.325Z,8.70
2019-04-28T02:50:13.862Z,8.70
2019-04-28T02:53:14.021Z,8.70
2019-04-28T02:55:54.398Z,8.80
2019-04-28T02:58:35.191Z,8.70
2019-04-28T03:01:22.725Z,8.70
2019-04-28T03:04:00.358Z,8.60
2019-04-28T03:06:40.916Z,8.70
2019-04-28T03:09:21.542Z,8.70
2019-04-28T03:12:01.972Z,8.60
2019-04-28T03:14:43.995Z,8.50
2019-04-28T03:17:24.859Z,8.60
2019-04-28T03:20:05.642Z,8.70
2019-04-28T03:22:46.263Z,8.80
2019-04-28T03:25:50.617Z,8.80
2019-04-28T03:28:56.807Z,8.70
2019-04-28T03:34:54.202Z,8.70
2019-04-28T03:37:35.524Z,8.70
2019-04-28T03:40:16.079Z,8.70
2019-04-28T03:42:59.389Z,8.60
2019-04-28T03:45:45.333Z,8.50
2019-04-28T03:48:26.187Z,8.60
2019-04-28T03:51:06.797Z,8.70
2019-04-28T03:53:50.544Z,8.60
2019-04-28T03:56:30.986Z,8.60
2019-04-28T03:59:12.186Z,8.70
2019-04-28T04:01:59.487Z,8.70
2019-04-28T04:04:36.071Z,8.70
2019-04-28T04:07:16.656Z,8.60
2019-04-28T04:13:11.867Z,8.60
2019-04-28T04:16:12.246Z,8.50
2019-04-28T04:18:55.023Z,8.50
2019-04-28T04:21:36.161Z,8.50
2019-04-28T04:24:17.049Z,8.60
2019-04-28T04:26:57.568Z,8.70
2019-04-28T04:29:43.278Z,8.70
2019-04-28T04:32:26.711Z,8.70
2019-04-28T04:35:04.102Z,8.80
2019-04-28T04:37:44.764Z,8.90
2019-04-28T04:40:25.643Z,9.00
2019-04-28T04:43:06.849Z,8.90
2019-04-28T04:45:50.238Z,8.90
2019-04-28T04:48:31.246Z,8.80
2019-04-28T04:51:11.645Z,8.90
2019-04-28T04:53:52.091Z,8.90
2019-04-28T04:56:32.483Z,8.90
2019-04-28T04:59:13.355Z,9.00
2019-04-28T05:02:26.419Z,9.10
2019-04-28T05:05:08.101Z,9.00
2019-04-28T05:07:50.719Z,9.10
2019-04-28T05:10:31.875Z,9.20
2019-04-28T05:13:12.588Z,9.20
2019-04-28T05:15:53.297Z,9.30
2019-04-28T05:18:34.137Z,9.30
2019-04-28T05:21:15.033Z,9.20
2019-04-28T05:24:16.301Z,9.10
2019-04-28T05:26:59.581Z,9.00
2019-04-28T05:29:40.535Z,9.00
2019-04-28T05:32:21.127Z,9.00
2019-04-28T05:35:02.053Z,9.00
2019-04-28T05:37:43.016Z,9.00
2019-04-28T05:40:23.406Z,8.90
2019-04-28T05:43:04.481Z,8.90
2019-04-28T05:45:44.862Z,8.90
2019-04-28T05:48:44.662Z,8.90
2019-04-28T05:51:26.543Z,8.90
2019-04-28T05:54:31.461Z,8.90
2019-04-28T06:00:46.196Z,8.90
2019-04-28T06:03:27.883Z,8.90
2019-04-28T06:06:10.230Z,8.90
2019-04-28T06:12:14.445Z,9.00
2019-04-28T06:14:55.135Z,9.10
2019-04-28T06:17:35.590Z,9.00
2019-04-28T06:20:16.340Z,9.20
2019-04-28T06:22:56.871Z,9.20
2019-04-28T06:25:37.623Z,9.20
2019-04-28T06:28:18.234Z,9.10
2019-04-28T06:30:58.904Z,9.10
2019-04-28T06:33:39.751Z,9.20
2019-04-28T06:36:20.512Z,9.30
2019-04-28T06:39:01.527Z,9.40
2019-04-28T06:41:42.072Z,9.50
2019-04-28T06:44:22.526Z,9.50
2019-04-28T06:47:03.029Z,9.50
2019-04-28T06:49:43.831Z,9.60
2019-04-28T06:52:25.060Z,9.60
2019-04-28T06:55:05.538Z,9.70
2019-04-28T06:57:46.723Z,9.90
2019-04-28T07:00:27.318Z,10.00
2019-04-28T07:03:10.489Z,10.00
2019-04-28T07:05:50.593Z,10.10
2019-04-28T07:08:31.007Z,10.40
2019-04-28T07:11:11.618Z,10.50
2019-04-28T07:13:52.518Z,10.60
2019-04-28T07:16:33.125Z,10.70
2019-04-28T07:19:13.832Z,10.80
2019-04-28T07:22:01.003Z,10.90
2019-04-28T07:24:44.678Z,11.00
2019-04-28T07:27:24.362Z,11.10
2019-04-28T07:30:05.024Z,11.10
2019-04-28T07:32:46.480Z,11.00
2019-04-28T07:35:27.855Z,11.10
2019-04-28T07:38:08.923Z,11.20
2019-04-28T07:40:49.391Z,11.30
2019-04-28T07:43:30.299Z,11.40
2019-04-28T07:46:10.674Z,11.40
2019-04-28T07:48:52.510Z,11.30
2019-04-28T07:54:40.143Z,11.30
2019-04-28T07:57:23.999Z,11.40
2019-04-28T08:00:04.153Z,11.50
2019-04-28T08:02:45.161Z,11.50
2019-04-28T08:05:25.931Z,11.60
2019-04-28T08:08:07.176Z,11.80
2019-04-28T08:10:47.806Z,11.90
2019-04-28T08:13:28.595Z,11.90
2019-04-28T08:16:09.616Z,11.90
2019-04-28T08:18:50.172Z,11.80
2019-04-28T08:21:30.934Z,11.70
2019-04-28T08:24:11.203Z,11.70
2019-04-28T08:26:51.949Z,11.90
2019-04-28T08:29:32.451Z,11.80
2019-04-28T08:32:35.115Z,12.00
2019-04-28T08:35:16.386Z,12.00
2019-04-28T08:37:57.668Z,11.90
2019-04-28T08:40:38.483Z,12.00
2019-04-28T08:43:19.731Z,12.00
2019-04-28T08:46:00.234Z,12.10
2019-04-28T08:48:40.883Z,12.20
2019-04-28T08:51:21.727Z,12.10
2019-04-28T08:54:02.420Z,12.10
2019-04-28T08:56:43.372Z,12.40
2019-04-28T08:59:24.204Z,12.60
2019-04-28T09:02:04.875Z,12.70
2019-04-28T09:04:46.284Z,13.00
2019-04-28T09:07:26.847Z,13.00
2019-04-28T09:10:07.822Z,13.10
2019-04-28T09:12:48.532Z,13.50
2019-04-28T09:15:29.645Z,13.60
2019-04-28T09:18:10.232Z,13.90
2019-04-28T09:20:51.280Z,13.80
2019-04-28T09:23:31.883Z,13.70
2019-04-28T09:26:12.359Z,13.60
2019-04-28T09:28:53.453Z,13.60
2019-04-28T09:31:34.398Z,13.60
2019-04-28T09:34:27.520Z,13.70
2019-04-28T09:36:57.812Z,13.80
2019-04-28T09:45:56.026Z,13.30
2019-04-28T09:48:37.054Z,12.90
2019-04-28T09:51:17.962Z,12.60
2019-04-28T09:53:58.351Z,12.40
2019-04-28T09:56:38.918Z,12.40
2019-04-28T09:59:19.302Z,12.40
2019-04-28T10:02:00.251Z,12.30
2019-04-28T10:04:42.045Z,12.20
2019-04-28T10:07:22.926Z,12.20
2019-04-28T10:10:03.242Z,12.10
2019-04-28T10:12:44.026Z,12.10
2019-04-28T10:15:24.373Z,12.10
2019-04-28T10:18:05.105Z,12.30
2019-04-28T10:20:45.815Z,12.70
2019-04-28T10:23:26.497Z,13.10
2019-04-28T10:26:07.603Z,13.50
2019-04-28T10:28:48.936Z,13.70
2019-04-28T10:31:29.650Z,13.80
2019-04-28T10:34:10.547Z,13.90
2019-04-28T10:36:51.274Z,14.00
2019-04-28T10:39:37.467Z,14.10
2019-04-28T10:42:18.227Z,14.10
2019-04-28T10:44:58.813Z,14.10
2019-04-28T10:47:39.651Z,14.10
2019-04-28T10:50:20.526Z,13.90
2019-04-28T10:53:01.226Z,13.80
2019-04-28T10:55:41.879Z,14.10
2019-04-28T10:58:22.910Z,14.00
2019-04-28T11:01:03.370Z,14.10
2019-04-28T11:03:45.979Z,14.20
2019-04-28T11:06:26.574Z,14.40
2019-04-28T11:12:07.438Z,14.80
2019-04-28T11:14:48.075Z,14.90
2019-04-28T11:17:28.706Z,15.10
2019-04-28T11:20:09.768Z,15.20
2019-04-28T11:22:50.771Z,15.30
2019-04-28T11:25:31.406Z,15.30
2019-04-28T11:28:11.986Z,15.80
2019-04-28T11:30:52.598Z,16.00
2019-04-28T11:36:34.707Z,16.30
2019-04-28T11:39:19.887Z,16.40
2019-04-28T11:42:00.842Z,16.30
2019-04-28T11:44:41.611Z,16.30
2019-04-28T11:47:24.011Z,16.30
2019-04-28T11:50:04.792Z,16.20
2019-04-28T11:52:45.500Z,16.00
2019-04-28T11:55:26.288Z,15.90
2019-04-28T11:58:07.580Z,15.90
2019-04-28T12:00:48.560Z,15.80
2019-04-28T12:03:29.408Z,15.80
2019-04-28T12:06:10.318Z,15.60
2019-04-28T12:08:52.496Z,15.60
2019-04-28T12:11:39.354Z,15.50
2019-04-28T12:17:43.964Z,15.80
2019-04-28T12:20:25.523Z,15.90
2019-04-28T12:23:06.636Z,15.80
2019-04-28T12:25:47.403Z,15.50
2019-04-28T12:28:28.034Z,15.30
2019-04-28T12:31:08.626Z,15.20
2019-04-28T12:33:49.171Z,15.30
2019-04-28T12:36:30.268Z,15.20
2019-04-28T12:39:10.940Z,14.90
2019-04-28T12:41:51.335Z,14.70
2019-04-28T12:44:32.067Z,14.50
2019-04-28T12:47:12.891Z,14.30
2019-04-28T12:52:48.410Z,13.90
2019-04-28T12:55:28.822Z,13.80
2019-04-28T12:58:09.774Z,13.80
2019-04-28T13:01:10.282Z,13.70
2019-04-28T13:04:10.586Z,13.70
2019-04-28T13:07:10.551Z,13.70
2019-04-28T13:09:51.503Z,13.80
2019-04-28T13:12:31.898Z,13.80
2019-04-28T13:15:13.224Z,13.80
2019-04-28T13:17:53.866Z,13.80
2019-04-28T13:20:34.519Z,13.80
2019-04-28T13:23:15.170Z,13.80
2019-04-28T13:25:55.585Z,13.70
2019-04-28T13:28:36.356Z,13.80
2019-04-28T13:31:17.035Z,13.90
2019-04-28T13:33:59.150Z,13.80
2019-04-28T13:36:40.046Z,13.80
2019-04-28T13:39:42.639Z,14.00
2019-04-28T13:42:23.675Z,14.00
2019-04-28T13:45:07.850Z,14.20
2019-04-28T13:47:46.923Z,14.40
2019-04-28T13:53:31.615Z,14.80
2019-04-28T13:56:20.018Z,14.90
2019-04-28T13:59:29.108Z,14.90
2019-04-28T14:08:43.863Z,15.00
2019-04-28T14:11:31.983Z,15.10
2019-04-28T14:14:20.015Z,15.30
2019-04-28T14:17:08.037Z,15.40
2019-04-28T14:19:56.148Z,15.50
2019-04-28T14:22:44.171Z,15.60
2019-04-28T14:25:32.189Z,15.70
2019-04-28T14:28:20.566Z,15.80
2019-04-28T14:31:08.590Z,16.10
2019-04-28T14:33:56.955Z,16.20
2019-04-28T14:36:42.099Z,16.30
2019-04-28T14:39:20.356Z,16.60
2019-04-28T14:42:01.280Z,16.60
2019-04-28T14:44:41.882Z,16.70
2019-04-28T14:47:22.979Z,16.80
2019-04-28T14:50:03.400Z,16.70
2019-04-28T14:52:44.238Z,16.70
2019-04-28T14:55:24.809Z,16.70
2019-04-28T14:58:05.480Z,16.80
2019-04-28T15:00:50.406Z,16.70
2019-04-28T15:03:32.206Z,16.60
2019-04-28T15:06:19.397Z,16.50
2019-04-28T15:12:08.659Z,16.50
2019-04-28T15:14:49.478Z,16.40
2019-04-28T15:17:30.128Z,16.40
2019-04-28T15:20:10.967Z,16.30
2019-04-28T15:22:52.087Z,16.20
2019-04-28T15:25:33.275Z,16.20
2019-04-28T15:28:13.810Z,16.20
2019-04-28T15:30:54.339Z,16.20
2019-04-28T15:33:35.133Z,16.10
2019-04-28T15:36:16.737Z,15.80
2019-04-28T15:38:57.850Z,15.60
2019-04-28T15:41:39.325Z,15.40
2019-04-28T15:44:20.679Z,15.30
2019-04-28T15:47:02.140Z,15.10
2019-04-28T15:49:43.473Z,15.00
2019-04-28T15:52:24.932Z,14.90
2019-04-28T15:55:08.083Z,14.80
2019-04-28T15:57:49.438Z,14.80
2019-04-28T16:00:30.448Z,14.90
2019-04-28T16:03:11.091Z,15.00
2019-04-28T16:05:52.639Z,15.00
2019-04-28T16:08:33.565Z,14.90
2019-04-28T16:11:14.477Z,14.80
2019-04-28T16:13:55.448Z,14.70
2019-04-28T16:16:36.829Z,14.70
2019-04-28T16:19:17.477Z,14.80
2019-04-28T16:21:58.903Z,14.80
2019-04-28T16:24:39.423Z,14.80
2019-04-28T16:27:20.427Z,14.90
2019-04-28T16:30:01.576Z,14.90
2019-04-28T16:32:43.259Z,14.90
2019-04-28T16:35:23.801Z,14.80
2019-04-28T16:38:04.635Z,14.90
2019-04-28T16:40:45.194Z,15.00
2019-04-28T16:43:26.276Z,15.20
2019-04-28T16:46:07.023Z,15.30
2019-04-28T16:48:47.964Z,15.30
2019-04-28T16:51:28.929Z,15.20
2019-04-28T16:54:09.822Z,15.10
2019-04-28T17:00:06.967Z,15.10
2019-04-28T17:02:50.481Z,14.90
2019-04-28T17:05:31.688Z,14.70
2019-04-28T17:08:12.954Z,14.70
2019-04-28T17:10:54.204Z,14.70
2019-04-28T17:13:35.276Z,14.80
2019-04-28T17:16:16.670Z,14.80
2019-04-28T17:18:57.384Z,14.80
2019-04-28T17:21:38.913Z,14.70
2019-04-28T17:24:20.245Z,14.60
2019-04-28T17:27:01.427Z,14.50
2019-04-28T17:29:42.446Z,14.50
2019-04-28T17:32:23.893Z,14.60
2019-04-28T17:35:04.972Z,14.60
2019-04-28T17:37:45.621Z,14.60
2019-04-28T17:40:27.805Z,14.50
2019-04-28T17:43:08.706Z,14.60
2019-04-28T17:45:49.230Z,14.50
2019-04-28T17:48:33.830Z,14.60
2019-04-28T17:51:14.985Z,14.60
2019-04-28T17:53:55.935Z,14.60
2019-04-28T17:56:37.402Z,14.70
2019-04-28T17:59:18.431Z,14.60
2019-04-28T18:05:33.524Z,14.40
2019-04-28T18:08:20.901Z,14.00
2019-04-28T18:10:57.687Z,13.80
2019-04-28T18:13:39.316Z,13.60
2019-04-28T18:19:33.579Z,13.60
2019-04-28T18:22:14.844Z,13.40
2019-04-28T18:24:56.055Z,13.20
2019-04-28T18:27:37.932Z,13.20
2019-04-28T18:30:21.078Z,13.10
2019-04-28T18:33:23.487Z,13.10
2019-04-28T18:39:32.174Z,13.20
2019-04-28T18:45:28.305Z,12.90
2019-04-28T18:48:09.107Z,12.90
2019-04-28T18:50:49.675Z,12.90
2019-04-28T18:53:31.012Z,12.70
2019-04-28T18:56:11.647Z,12.70
2019-04-28T18:58:52.340Z,12.60
2019-04-28T19:01:52.037Z,12.60
2019-04-28T19:04:32.751Z,12.60
2019-04-28T19:07:16.076Z,12.60
2019-04-28T19:12:58.321Z,12.40
2019-04-28T19:15:47.058Z,12.40
2019-04-28T19:21:32.309Z,12.20
2019-04-28T19:24:20.338Z,12.10
2019-04-28T19:27:08.333Z,11.90
2019-04-28T19:29:56.373Z,11.60
2019-04-28T19:32:44.364Z,11.40
2019-04-28T19:35:32.389Z,11.10
2019-04-28T19:38:20.662Z,11.00
2019-04-28T19:41:08.670Z,10.90
2019-04-28T19:43:57.055Z,10.60
2019-04-28T19:46:45.114Z,10.40
2019-04-28T19:49:44.834Z,10.30
2019-04-28T20:04:21.735Z,10.10
2019-04-28T20:07:09.839Z,10.20
2019-04-28T20:09:57.846Z,10.20
2019-04-28T20:12:45.842Z,10.10
2019-04-28T20:15:33.922Z,9.90
2019-04-28T20:18:22.301Z,9.80
2019-04-28T20:21:11.211Z,9.80
2019-04-28T20:23:59.595Z,9.90
2019-04-28T20:26:47.613Z,9.80
2019-04-28T20:29:35.615Z,9.90
2019-04-28T20:32:23.874Z,9.90
2019-04-28T20:35:12.197Z,10.00
2019-04-28T20:37:58.308Z,10.10
2019-04-28T20:40:44.322Z,10.10
2019-04-28T20:43:25.945Z,10.00
2019-04-28T20:46:06.347Z,10.00
2019-04-28T20:48:47.022Z,9.80
2019-04-28T20:51:27.307Z,9.70
2019-04-28T20:54:07.754Z,9.80
2019-04-28T20:56:48.427Z,9.80
2019-04-28T20:59:29.094Z,9.80
2019-04-28T21:02:10.165Z,9.80
2019-04-28T21:04:50.726Z,9.80
2019-04-28T21:07:31.353Z,9.70
2019-04-28T21:10:12.700Z,9.60
2019-04-28T21:12:53.694Z,9.60
2019-04-28T21:15:34.588Z,9.60
2019-04-28T21:18:15.423Z,9.70
2019-04-28T21:20:55.818Z,9.60
2019-04-28T21:23:36.395Z,9.40
2019-04-28T21:26:17.462Z,9.20
2019-04-28T21:28:58.054Z,9.20
2019-04-28T21:31:38.699Z,9.30
2019-04-28T21:34:19.635Z,9.40
2019-04-28T21:37:00.435Z,9.50
2019-04-28T21:39:40.703Z,9.50
2019-04-28T21:42:24.134Z,9.40
2019-04-28T21:45:23.983Z,9.40
2019-04-28T21:48:04.584Z,9.30
2019-04-28T21:50:45.181Z,9.30
2019-04-28T21:53:25.836Z,9.20
2019-04-28T21:56:06.298Z,9.30
2019-04-28T21:58:46.874Z,9.00
2019-04-28T22:01:27.928Z,8.70
2019-04-28T22:04:08.950Z,8.50
2019-04-28T22:06:49.730Z,8.60
2019-04-28T22:09:30.315Z,8.60
2019-04-28T22:12:11.123Z,8.80
2019-04-28T22:14:52.135Z,8.60
2019-04-28T22:17:33.087Z,8.30
2019-04-28T22:20:14.147Z,8.30
2019-04-28T22:22:56.467Z,8.10
2019-04-28T22:25:37.610Z,8.00
2019-04-28T22:28:18.282Z,8.10
2019-04-28T22:30:58.960Z,8.00
2019-04-28T22:33:39.807Z,8.00
2019-04-28T22:36:20.865Z,8.00
2019-04-28T22:39:01.271Z,8.20
2019-04-28T22:41:42.162Z,8.40
2019-04-28T22:44:23.702Z,8.30
2019-04-28T22:47:04.136Z,8.30
2019-04-28T22:49:44.779Z,8.40
2019-04-28T22:52:25.664Z,8.20
2019-04-28T22:55:13.974Z,8.10
2019-04-28T22:58:14.248Z,8.00
2019-04-28T23:00:58.190Z,8.00
2019-04-28T23:06:47.815Z,7.90
2019-04-28T23:09:28.719Z,7.90
2019-04-28T23:12:10.115Z,7.90
2019-04-28T23:14:51.215Z,7.90
2019-04-28T23:17:32.004Z,7.90
2019-04-28T23:20:12.629Z,7.90
2019-04-28T23:22:53.903Z,8.00
2019-04-28T23:25:34.731Z,8.20
2019-04-28T23:28:15.432Z,8.30
2019-04-28T23:30:56.187Z,8.40
2019-04-28T23:33:36.839Z,8.50
2019-04-28T23:36:17.829Z,8.50
2019-04-28T23:38:58.556Z,8.60
2019-04-28T23:44:34.775Z,8.60
2019-04-28T23:47:15.839Z,8.60
2019-04-28T23:49:56.480Z,8.60
2019-04-28T23:55:31.795Z,8.40
2019-04-28T23:58:12.702Z,8.20
